createdAt,value
2017-05-14T00:00:19.774Z,15
2017-05-14T00:01:22.194Z,15
2017-05-14T00:02:24.723Z,15
2017-05-14T00:03:27.105Z,15
2017-05-14T00:04:29.507Z,14.9
2017-05-14T00:05:31.970Z,14.8
2017-05-14T00:06:34.453Z,14.9
2017-05-14T00:07:37.192Z,14.8
2017-05-14T00:08:39.623Z,15.1
2017-05-14T00:09:42.042Z,15.4
2017-05-14T00:10:44.425Z,15.5
2017-05-14T00:11:46.812Z,15.4
2017-05-14T00:12:49.243Z,15.5
2017-05-14T00:13:51.594Z,15.5
2017-05-14T00:14:53.998Z,15.4
2017-05-14T00:15:56.401Z,15.1
2017-05-14T00:16:58.814Z,15.2
2017-05-14T00:18:01.253Z,15.3
2017-05-14T00:19:03.652Z,15.4
2017-05-14T00:20:05.999Z,15.4
2017-05-14T00:21:08.397Z,15.3
2017-05-14T00:22:10.719Z,15
2017-05-14T00:23:13.120Z,14.9
2017-05-14T00:24:15.548Z,14.9
2017-05-14T00:25:17.916Z,15.1
2017-05-14T00:26:20.340Z,15.1
2017-05-14T00:27:22.711Z,15
2017-05-14T00:28:25.077Z,15
2017-05-14T00:29:27.447Z,14.9
2017-05-14T00:30:29.829Z,15.1
2017-05-14T00:31:32.224Z,15.1
2017-05-14T00:32:34.567Z,15.1
2017-05-14T00:33:37.548Z,15.2
2017-05-14T00:34:40.505Z,15.3
2017-05-14T00:35:42.866Z,15.2
2017-05-14T00:36:45.301Z,15.1
2017-05-14T00:37:47.747Z,15.1
2017-05-14T00:38:50.181Z,15.1
2017-05-14T00:39:52.583Z,15.1
2017-05-14T00:40:54.969Z,15.1
2017-05-14T00:41:57.347Z,15.1
2017-05-14T00:42:59.687Z,15
2017-05-14T00:44:02.069Z,14.9
2017-05-14T00:45:04.454Z,14.6
2017-05-14T00:46:06.811Z,14.4
2017-05-14T00:47:09.152Z,14.4
2017-05-14T00:48:11.481Z,14.3
2017-05-14T00:49:13.813Z,14.4
2017-05-14T00:50:16.155Z,14.6
2017-05-14T00:51:18.527Z,14.6
2017-05-14T00:52:20.861Z,14.5
2017-05-14T00:53:23.224Z,14.6
2017-05-14T00:54:25.601Z,14.6
2017-05-14T00:55:27.944Z,14.3
2017-05-14T00:56:30.375Z,14.3
2017-05-14T00:57:32.676Z,14.3
2017-05-14T00:58:34.999Z,14.4
2017-05-14T00:59:37.525Z,14.4
2017-05-14T01:00:39.927Z,14.4
2017-05-14T01:01:42.282Z,14.4
2017-05-14T01:02:44.638Z,14.2
2017-05-14T01:03:47.484Z,14.2
2017-05-14T01:04:49.846Z,14.3
2017-05-14T01:05:52.173Z,14.6
2017-05-14T01:06:54.491Z,14.6
2017-05-14T01:07:56.801Z,14.6
2017-05-14T01:08:59.194Z,14.6
2017-05-14T01:10:01.534Z,14.7
2017-05-14T01:11:03.852Z,14.6
2017-05-14T01:12:06.250Z,14.7
2017-05-14T01:13:08.641Z,14.6
2017-05-14T01:14:11.041Z,14.6
2017-05-14T01:15:13.415Z,14.6
2017-05-14T01:16:15.783Z,14.6
2017-05-14T01:17:18.094Z,14.6
2017-05-14T01:18:20.438Z,14.6
2017-05-14T01:19:22.802Z,14.7
2017-05-14T01:20:25.187Z,14.7
2017-05-14T01:21:27.526Z,14.8
2017-05-14T01:22:29.890Z,14.6
2017-05-14T01:23:32.260Z,14.5
2017-05-14T01:24:39.853Z,14.3
2017-05-14T01:25:42.179Z,14.3
2017-05-14T01:26:44.499Z,14.3
2017-05-14T01:27:46.858Z,14.4
2017-05-14T01:28:49.276Z,14.3
2017-05-14T01:29:51.676Z,14.3
2017-05-14T01:30:54.221Z,14.2
2017-05-14T01:31:56.610Z,14.2
2017-05-14T01:32:59.001Z,14.2
2017-05-14T01:34:01.602Z,14.3
2017-05-14T01:35:04.305Z,14.4
2017-05-14T01:36:06.772Z,14.3
2017-05-14T01:37:09.274Z,14.2
2017-05-14T01:38:11.609Z,14.3
2017-05-14T01:39:13.971Z,14.4
2017-05-14T01:40:16.322Z,14.3
2017-05-14T01:41:18.670Z,14.3
2017-05-14T01:42:21.065Z,14.4
2017-05-14T01:43:23.440Z,14.4
2017-05-14T01:44:25.802Z,14.5
2017-05-14T01:45:28.139Z,14.4
2017-05-14T01:46:30.556Z,14.2
2017-05-14T01:47:32.918Z,14.4
2017-05-14T01:48:35.300Z,14.4
2017-05-14T01:49:37.725Z,14.3
2017-05-14T01:50:40.055Z,14.3
2017-05-14T01:51:42.402Z,14.3
2017-05-14T01:52:44.771Z,14.4
2017-05-14T01:53:47.162Z,14.3
2017-05-14T01:54:50.037Z,14.3
2017-05-14T01:55:52.360Z,14.3
2017-05-14T01:56:54.778Z,14.2
2017-05-14T01:57:57.117Z,14.3
2017-05-14T01:58:59.472Z,14.3
2017-05-14T02:00:01.836Z,14.2
2017-05-14T02:01:04.171Z,14.2
2017-05-14T02:02:06.768Z,14.2
2017-05-14T02:03:09.134Z,14.2
2017-05-14T02:04:11.502Z,14.1
2017-05-14T02:05:14.009Z,14.2
2017-05-14T02:06:16.404Z,14.3
2017-05-14T02:07:18.793Z,14.4
2017-05-14T02:08:21.149Z,14.4
2017-05-14T02:09:23.491Z,14.3
2017-05-14T02:10:25.822Z,14.3
2017-05-14T02:11:28.254Z,14.1
2017-05-14T02:12:30.623Z,14.1
2017-05-14T02:13:32.957Z,14.2
2017-05-14T02:14:35.291Z,14.3
2017-05-14T02:15:37.640Z,14.4
2017-05-14T02:16:39.971Z,14.5
2017-05-14T02:17:42.451Z,14.4
2017-05-14T02:18:44.801Z,14.5
2017-05-14T02:19:47.186Z,14.7
2017-05-14T02:20:49.572Z,14.6
2017-05-14T02:21:51.877Z,14.7
2017-05-14T02:22:54.289Z,14.7
2017-05-14T02:23:56.648Z,14.8
2017-05-14T02:24:59.040Z,14.9
2017-05-14T02:26:01.368Z,14.8
2017-05-14T02:27:03.687Z,14.7
2017-05-14T02:28:06.058Z,14.8
2017-05-14T02:29:08.401Z,14.7
2017-05-14T02:30:10.705Z,14.6
2017-05-14T02:31:13.105Z,14.6
2017-05-14T02:32:15.424Z,14.6
2017-05-14T02:33:17.809Z,14.6
2017-05-14T02:34:20.172Z,14.6
2017-05-14T02:35:22.490Z,14.6
2017-05-14T02:36:24.932Z,14.7
2017-05-14T02:37:27.300Z,14.6
2017-05-14T02:38:29.658Z,14.6
2017-05-14T02:39:32.004Z,14.6
2017-05-14T02:40:34.354Z,14.5
2017-05-14T02:41:36.749Z,14.5
2017-05-14T02:42:39.171Z,14.7
2017-05-14T02:43:41.584Z,14.6
2017-05-14T02:44:43.896Z,14.6
2017-05-14T02:45:46.222Z,14.6
2017-05-14T02:46:48.594Z,14.6
2017-05-14T02:47:50.973Z,14.7
2017-05-14T02:48:53.432Z,14.7
2017-05-14T02:49:56.481Z,14.6
2017-05-14T02:50:58.836Z,14.6
2017-05-14T02:52:01.169Z,14.7
2017-05-14T02:53:03.495Z,14.7
2017-05-14T02:54:06.127Z,14.7
2017-05-14T02:55:08.512Z,14.6
2017-05-14T02:56:10.912Z,14.6
2017-05-14T02:57:13.246Z,14.6
2017-05-14T02:58:15.584Z,14.6
2017-05-14T02:59:18.439Z,14.6
2017-05-14T03:00:20.829Z,14.7
2017-05-14T03:01:23.152Z,14.7
2017-05-14T03:02:25.507Z,14.6
2017-05-14T03:03:27.896Z,14.6
2017-05-14T03:04:30.454Z,14.7
2017-05-14T03:05:32.809Z,14.7
2017-05-14T03:06:35.253Z,14.7
2017-05-14T03:07:37.601Z,14.6
2017-05-14T03:08:40.084Z,14.6
2017-05-14T03:09:42.443Z,14.5
2017-05-14T03:10:44.793Z,14.6
2017-05-14T03:11:47.150Z,14.6
2017-05-14T03:12:49.588Z,14.6
2017-05-14T03:13:51.986Z,14.6
2017-05-14T03:14:54.315Z,14.5
2017-05-14T03:15:56.684Z,14.6
2017-05-14T03:16:59.092Z,14.6
2017-05-14T03:18:01.526Z,14.5
2017-05-14T03:19:04.102Z,14.6
2017-05-14T03:20:06.442Z,14.5
2017-05-14T03:21:08.787Z,14.5
2017-05-14T03:22:11.151Z,14.6
2017-05-14T03:23:13.490Z,14.6
2017-05-14T03:24:15.824Z,14.6
2017-05-14T03:25:18.160Z,14.6
2017-05-14T03:26:20.523Z,14.6
2017-05-14T03:27:22.849Z,14.5
2017-05-14T03:28:25.185Z,14.5
2017-05-14T03:29:27.512Z,14.5
2017-05-14T03:30:29.886Z,14.5
2017-05-14T03:31:32.237Z,14.5
2017-05-14T03:32:34.574Z,14.5
2017-05-14T03:33:36.931Z,14.5
2017-05-14T03:34:39.340Z,14.5
2017-05-14T03:35:41.659Z,14.5
2017-05-14T03:36:44.007Z,14.5
2017-05-14T03:37:46.326Z,14.5
2017-05-14T03:38:48.704Z,14.5
2017-05-14T03:39:51.107Z,14.5
2017-05-14T03:40:53.460Z,14.5
2017-05-14T03:41:55.806Z,14.5
2017-05-14T03:42:58.137Z,14.6
2017-05-14T03:44:00.654Z,14.6
2017-05-14T03:45:02.970Z,14.5
2017-05-14T03:46:05.296Z,14.5
2017-05-14T03:47:07.678Z,14.6
2017-05-14T03:48:10.057Z,14.6
2017-05-14T03:49:12.386Z,14.5
2017-05-14T03:50:14.740Z,14.6
2017-05-14T03:51:17.087Z,14.5
2017-05-14T03:52:19.451Z,14.6
2017-05-14T03:53:21.779Z,14.6
2017-05-14T03:54:24.150Z,14.6
2017-05-14T03:55:26.461Z,14.5
2017-05-14T03:56:28.844Z,14.6
2017-05-14T03:57:31.196Z,14.6
2017-05-14T03:58:33.514Z,14.6
2017-05-14T03:59:35.858Z,14.5
2017-05-14T04:00:38.179Z,14.5
2017-05-14T04:01:40.545Z,14.5
2017-05-14T04:02:42.901Z,14.6
2017-05-14T04:03:45.250Z,14.6
2017-05-14T04:04:47.882Z,14.6
2017-05-14T04:05:50.300Z,14.6
2017-05-14T04:06:52.832Z,14.6
2017-05-14T04:07:55.170Z,14.6
2017-05-14T04:08:57.499Z,14.6
2017-05-14T04:09:59.865Z,14.5
2017-05-14T04:11:02.247Z,14.5
2017-05-14T04:12:04.583Z,14.6
2017-05-14T04:13:06.921Z,14.6
2017-05-14T04:14:09.266Z,14.6
2017-05-14T04:15:11.649Z,14.6
2017-05-14T04:16:14.013Z,14.6
2017-05-14T04:17:16.345Z,14.6
2017-05-14T04:18:18.704Z,14.7
2017-05-14T04:19:21.049Z,14.6
2017-05-14T04:20:23.478Z,14.6
2017-05-14T04:21:25.808Z,14.6
2017-05-14T04:22:28.168Z,14.6
2017-05-14T04:23:30.579Z,14.7
2017-05-14T04:24:32.910Z,14.6
2017-05-14T04:25:35.244Z,14.6
2017-05-14T04:26:37.604Z,14.6
2017-05-14T04:27:39.977Z,14.7
2017-05-14T04:28:42.308Z,14.7
2017-05-14T04:29:44.654Z,14.6
2017-05-14T04:30:47.000Z,14.6
2017-05-14T04:31:49.363Z,14.6
2017-05-14T04:32:51.706Z,14.6
2017-05-14T04:33:54.156Z,14.6
2017-05-14T04:34:56.501Z,14.6
2017-05-14T04:35:58.845Z,14.6
2017-05-14T04:37:01.489Z,14.6
2017-05-14T04:38:03.823Z,14.7
2017-05-14T04:39:06.152Z,14.7
2017-05-14T04:40:08.621Z,14.7
2017-05-14T04:41:11.021Z,14.7
2017-05-14T04:42:13.351Z,14.6
2017-05-14T04:43:15.719Z,14.7
2017-05-14T04:44:18.090Z,14.7
2017-05-14T04:45:20.483Z,14.7
2017-05-14T04:46:22.790Z,14.8
2017-05-14T04:47:25.127Z,14.7
2017-05-14T04:48:27.504Z,14.8
2017-05-14T04:49:29.852Z,14.8
2017-05-14T04:50:32.197Z,14.8
2017-05-14T04:51:34.559Z,14.7
2017-05-14T04:52:36.892Z,14.7
2017-05-14T04:53:39.354Z,14.7
2017-05-14T04:54:41.696Z,14.8
2017-05-14T04:55:44.079Z,14.6
2017-05-14T04:56:46.421Z,14.5
2017-05-14T04:57:48.733Z,14.7
2017-05-14T04:58:51.100Z,14.8
2017-05-14T04:59:53.463Z,14.8
2017-05-14T05:00:55.851Z,14.8
2017-05-14T05:01:58.212Z,14.9
2017-05-14T05:03:00.575Z,14.8
2017-05-14T05:04:02.901Z,14.7
2017-05-14T05:05:05.262Z,14.7
2017-05-14T05:06:07.593Z,14.7
2017-05-14T05:07:10.014Z,14.6
2017-05-14T05:08:12.382Z,14.5
2017-05-14T05:09:14.953Z,14.4
2017-05-14T05:10:17.322Z,14.5
2017-05-14T05:11:19.924Z,14.5
2017-05-14T05:12:22.276Z,14.5
2017-05-14T05:13:24.618Z,14.7
2017-05-14T05:14:27.395Z,14.7
2017-05-14T05:15:29.811Z,14.7
2017-05-14T05:16:32.252Z,14.7
2017-05-14T05:17:34.744Z,14.7
2017-05-14T05:18:37.085Z,14.7
2017-05-14T05:19:39.475Z,14.8
2017-05-14T05:20:42.054Z,14.7
2017-05-14T05:21:44.385Z,14.7
2017-05-14T05:22:47.056Z,14.4
2017-05-14T05:23:49.657Z,14.5
2017-05-14T05:24:52.034Z,14.5
2017-05-14T05:25:54.390Z,14.7
2017-05-14T05:26:56.732Z,14.6
2017-05-14T05:27:59.145Z,14.7
2017-05-14T05:29:01.535Z,14.7
2017-05-14T05:30:03.899Z,14.7
2017-05-14T05:31:06.231Z,14.8
2017-05-14T05:32:08.552Z,14.9
2017-05-14T05:33:10.947Z,14.9
2017-05-14T05:34:13.308Z,14.8
2017-05-14T05:35:15.723Z,14.7
2017-05-14T05:36:18.189Z,14.8
2017-05-14T05:37:20.589Z,14.9
2017-05-14T05:38:22.934Z,14.8
2017-05-14T05:39:25.331Z,14.9
2017-05-14T05:40:27.886Z,14.8
2017-05-14T05:41:30.339Z,14.8
2017-05-14T05:42:32.743Z,14.8
2017-05-14T05:43:35.083Z,14.7
2017-05-14T05:44:37.473Z,14.7
2017-05-14T05:45:39.854Z,14.8
2017-05-14T05:46:42.203Z,14.7
2017-05-14T05:47:44.691Z,14.6
2017-05-14T05:48:47.075Z,14.5
2017-05-14T05:49:49.464Z,14.5
2017-05-14T05:50:51.819Z,14.5
2017-05-14T05:51:54.195Z,14.5
2017-05-14T05:52:56.539Z,14.5
2017-05-14T05:53:58.934Z,14.3
2017-05-14T05:55:01.342Z,14.5
2017-05-14T05:56:03.799Z,14.4
2017-05-14T05:57:06.145Z,14.4
2017-05-14T05:58:08.521Z,14.5
2017-05-14T05:59:10.968Z,14.5
2017-05-14T06:00:13.456Z,14.5
2017-05-14T06:01:15.780Z,14.5
2017-05-14T06:02:18.188Z,14.5
2017-05-14T06:03:20.587Z,14.5
2017-05-14T06:04:22.996Z,14.5
2017-05-14T06:05:25.619Z,14.4
2017-05-14T06:06:28.003Z,14.4
2017-05-14T06:07:30.338Z,14.4
2017-05-14T06:08:32.749Z,14.4
2017-05-14T06:09:35.128Z,14.4
2017-05-14T06:10:37.480Z,14.5
2017-05-14T06:11:39.926Z,14.6
2017-05-14T06:12:42.335Z,14.5
2017-05-14T06:13:44.737Z,14.4
2017-05-14T06:14:47.148Z,14.5
2017-05-14T06:15:50.260Z,14.5
2017-05-14T06:16:52.576Z,14.5
2017-05-14T06:17:54.939Z,14.5
2017-05-14T06:18:57.291Z,14.6
2017-05-14T06:20:00.325Z,14.7
2017-05-14T06:21:02.675Z,14.6
2017-05-14T06:22:05.030Z,14.6
2017-05-14T06:23:07.408Z,14.6
2017-05-14T06:24:09.890Z,14.5
2017-05-14T06:25:12.247Z,14.6
2017-05-14T06:26:14.611Z,14.6
2017-05-14T06:27:17.013Z,14.5
2017-05-14T06:28:19.410Z,14.5
2017-05-14T06:29:21.774Z,14.5
2017-05-14T06:30:24.181Z,14.5
2017-05-14T06:31:26.507Z,14.5
2017-05-14T06:32:29.584Z,14.6
2017-05-14T06:33:31.986Z,14.5
2017-05-14T06:34:34.346Z,14.5
2017-05-14T06:35:36.721Z,14.5
2017-05-14T06:36:39.122Z,14.5
2017-05-14T06:37:41.536Z,14.5
2017-05-14T06:38:43.911Z,14.5
2017-05-14T06:39:46.288Z,14.5
2017-05-14T06:40:48.661Z,14.4
2017-05-14T06:41:51.062Z,14.6
2017-05-14T06:42:53.674Z,14.6
2017-05-14T06:43:56.027Z,14.6
2017-05-14T06:44:58.422Z,14.6
2017-05-14T06:46:00.875Z,14.6
2017-05-14T06:47:03.220Z,14.6
2017-05-14T06:48:06.249Z,14.6
2017-05-14T06:49:08.605Z,14.5
2017-05-14T06:50:11.008Z,14.4
2017-05-14T06:51:13.993Z,14.5
2017-05-14T06:52:16.356Z,14.5
2017-05-14T06:53:18.746Z,14.4
2017-05-14T06:54:21.156Z,14.4
2017-05-14T06:55:23.495Z,14.4
2017-05-14T06:56:25.899Z,14.4
2017-05-14T06:57:28.340Z,14.4
2017-05-14T06:58:30.827Z,14.5
2017-05-14T06:59:33.178Z,14.5
2017-05-14T07:00:35.560Z,14.5
2017-05-14T07:01:37.936Z,14.5
2017-05-14T07:02:40.281Z,14.4
2017-05-14T07:03:42.606Z,14.5
2017-05-14T07:04:45.034Z,14.4
2017-05-14T07:05:47.420Z,14.4
2017-05-14T07:06:49.819Z,14.4
2017-05-14T07:07:52.173Z,14.5
2017-05-14T07:08:54.529Z,14.4
2017-05-14T07:09:56.934Z,14.4
2017-05-14T07:10:59.298Z,14.4
2017-05-14T07:12:01.684Z,14.5
2017-05-14T07:13:04.095Z,14.5
2017-05-14T07:14:06.503Z,14.4
2017-05-14T07:15:08.898Z,14.5
2017-05-14T07:16:12.055Z,14.5
2017-05-14T07:17:14.442Z,14.5
2017-05-14T07:18:16.839Z,14.5
2017-05-14T07:19:19.309Z,14.5
2017-05-14T07:20:21.731Z,14.5
2017-05-14T07:21:24.069Z,14.5
2017-05-14T07:22:26.456Z,14.6
2017-05-14T07:23:28.852Z,14.6
2017-05-14T07:24:31.273Z,14.6
2017-05-14T07:25:34.481Z,14.6
2017-05-14T07:26:36.893Z,14.6
2017-05-14T07:27:45.020Z,14.5
2017-05-14T07:28:47.687Z,14.6
2017-05-14T07:29:50.133Z,14.7
2017-05-14T07:30:52.532Z,14.7
2017-05-14T07:31:54.944Z,14.6
2017-05-14T07:32:57.335Z,14.7
2017-05-14T07:33:59.811Z,14.7
2017-05-14T07:35:02.203Z,14.7
2017-05-14T07:36:04.588Z,14.7
2017-05-14T07:37:06.975Z,14.6
2017-05-14T07:38:09.993Z,14.7
2017-05-14T07:39:12.432Z,14.7
2017-05-14T07:40:14.844Z,14.6
2017-05-14T07:41:17.233Z,14.7
2017-05-14T07:42:19.638Z,14.8
2017-05-14T07:43:22.563Z,14.8
2017-05-14T07:44:24.963Z,14.8
2017-05-14T07:45:27.585Z,14.8
2017-05-14T07:46:30.001Z,14.8
2017-05-14T07:47:32.956Z,14.9
2017-05-14T07:48:35.329Z,14.9
2017-05-14T07:49:37.700Z,14.9
2017-05-14T07:50:40.212Z,14.9
2017-05-14T07:51:42.608Z,14.9
2017-05-14T07:52:45.067Z,14.9
2017-05-14T07:53:47.489Z,15
2017-05-14T07:54:49.978Z,15
2017-05-14T07:55:52.403Z,14.9
2017-05-14T07:56:54.812Z,15.1
2017-05-14T07:57:57.236Z,15.1
2017-05-14T07:58:59.664Z,15
2017-05-14T08:00:02.080Z,15.1
2017-05-14T08:01:04.521Z,15.2
2017-05-14T08:02:07.000Z,15.1
2017-05-14T08:03:09.388Z,15.3
2017-05-14T08:04:12.769Z,15.2
2017-05-14T08:05:15.174Z,15.2
2017-05-14T08:07:29.097Z,15.4
2017-05-14T08:08:31.534Z,15.3
2017-05-14T08:09:33.964Z,15.4
2017-05-14T08:10:36.385Z,15.4
2017-05-14T08:11:38.775Z,15.4
2017-05-14T08:12:41.318Z,15.5
2017-05-14T08:13:43.748Z,15.4
2017-05-14T08:14:46.205Z,15.5
2017-05-14T08:15:48.728Z,15.4
2017-05-14T08:16:51.264Z,15.4
2017-05-14T08:17:53.673Z,15.4
2017-05-14T08:18:56.120Z,15.6
2017-05-14T08:19:58.532Z,15.6
2017-05-14T08:21:00.955Z,15.7
2017-05-14T08:22:03.392Z,15.8
2017-05-14T08:23:05.797Z,15.9
2017-05-14T08:24:08.227Z,16
2017-05-14T08:25:11.221Z,16.2
2017-05-14T08:26:13.659Z,16
2017-05-14T08:27:16.344Z,16.2
2017-05-14T08:28:18.788Z,16.3
2017-05-14T08:29:21.234Z,16.5
2017-05-14T08:30:23.698Z,16.8
2017-05-14T08:31:26.170Z,16.8
2017-05-14T08:32:28.647Z,17.2
2017-05-14T08:33:31.115Z,17.2
2017-05-14T08:34:33.663Z,17.2
2017-05-14T08:35:36.061Z,17.6
2017-05-14T08:36:39.192Z,18.2
2017-05-14T08:37:42.320Z,18.6
2017-05-14T08:38:45.297Z,18.7
2017-05-14T08:39:48.036Z,18.5
2017-05-14T08:40:50.428Z,18.1
2017-05-14T08:41:54.110Z,18
2017-05-14T08:42:58.498Z,18.1
2017-05-14T08:44:01.902Z,18.1
2017-05-14T08:45:05.015Z,18
2017-05-14T08:46:08.058Z,17.7
2017-05-14T08:47:11.127Z,18
2017-05-14T08:48:13.591Z,18.1
2017-05-14T08:49:17.655Z,18.1
2017-05-14T08:50:20.115Z,18.5
2017-05-14T08:51:22.576Z,18.6
2017-05-14T08:52:25.061Z,18.6
2017-05-14T08:53:28.076Z,18.4
2017-05-14T08:54:31.223Z,18.7
2017-05-14T08:55:33.592Z,18.6
2017-05-14T08:56:40.367Z,19
2017-05-14T08:57:43.505Z,19.1
2017-05-14T08:58:45.945Z,18.5
2017-05-14T08:59:48.424Z,18.5
2017-05-14T09:00:50.913Z,18.3
2017-05-14T09:01:53.332Z,18.2
2017-05-14T09:02:55.804Z,18.1
2017-05-14T09:03:58.291Z,18.4
2017-05-14T09:05:00.746Z,19.3
2017-05-14T09:06:03.169Z,20
2017-05-14T09:07:05.562Z,20.1
2017-05-14T09:08:08.051Z,20.2
2017-05-14T09:09:10.780Z,20.6
2017-05-14T09:10:13.672Z,20.1
2017-05-14T09:11:17.117Z,19.9
2017-05-14T09:12:20.558Z,19.4
2017-05-14T09:13:23.408Z,19.3
2017-05-14T09:14:26.456Z,19.3
2017-05-14T09:15:28.922Z,19.5
2017-05-14T09:16:31.394Z,19.4
2017-05-14T09:17:33.781Z,19.1
2017-05-14T09:18:37.103Z,18.9
2017-05-14T09:19:39.572Z,18.9
2017-05-14T09:20:42.112Z,19
2017-05-14T09:21:44.497Z,18.9
2017-05-14T09:22:46.922Z,18.8
2017-05-14T09:23:49.395Z,18.9
2017-05-14T09:24:52.602Z,19.2
2017-05-14T09:25:56.192Z,19.3
2017-05-14T09:26:59.306Z,19.2
2017-05-14T09:28:01.745Z,19.2
2017-05-14T09:29:04.208Z,19.7
2017-05-14T09:30:08.345Z,19.5
2017-05-14T09:31:11.485Z,19.4
2017-05-14T09:32:13.983Z,20.2
2017-05-14T09:33:16.980Z,21
2017-05-14T09:34:20.088Z,20.7
2017-05-14T09:35:22.565Z,20.8
2017-05-14T09:36:25.064Z,21.8
2017-05-14T09:37:27.544Z,22.2
2017-05-14T09:38:30.053Z,22.6
2017-05-14T09:39:32.512Z,22.6
2017-05-14T09:40:34.944Z,22.9
2017-05-14T09:41:37.986Z,22
2017-05-14T09:42:40.504Z,22.5
2017-05-14T09:43:42.934Z,23.5
2017-05-14T09:44:46.680Z,23
2017-05-14T09:45:49.126Z,23.4
2017-05-14T09:46:51.685Z,23.2
2017-05-14T09:47:54.147Z,22
2017-05-14T09:48:56.563Z,21.8
2017-05-14T09:49:59.074Z,21.7
2017-05-14T09:51:02.565Z,21.8
2017-05-14T09:52:04.997Z,22.2
2017-05-14T09:53:08.758Z,21.6
2017-05-14T09:54:11.472Z,21.7
2017-05-14T09:55:14.141Z,22.1
2017-05-14T09:56:17.202Z,22.3
2017-05-14T09:57:19.764Z,22.2
2017-05-14T09:58:22.276Z,22
2017-05-14T09:59:26.697Z,21.9
2017-05-14T10:00:29.942Z,21.9
2017-05-14T10:01:33.503Z,21.9
2017-05-14T10:02:35.946Z,21.7
2017-05-14T10:03:39.132Z,21.7
2017-05-14T10:04:41.627Z,21.6
2017-05-14T10:05:44.113Z,21.7
2017-05-14T10:06:47.339Z,21.8
2017-05-14T10:07:49.842Z,21.7
2017-05-14T10:08:52.970Z,21.6
2017-05-14T10:09:55.393Z,21.5
2017-05-14T10:10:57.888Z,21.2
2017-05-14T10:12:01.136Z,21.5
2017-05-14T10:13:03.589Z,21.2
2017-05-14T10:14:06.557Z,21.2
2017-05-14T10:15:08.961Z,21.4
2017-05-14T10:16:11.466Z,21.5
2017-05-14T10:17:13.928Z,21.7
2017-05-14T10:18:18.683Z,21.2
2017-05-14T10:19:22.462Z,21.5
2017-05-14T10:20:26.184Z,22.1
2017-05-14T10:21:28.656Z,22.1
2017-05-14T10:22:31.256Z,21.9
2017-05-14T10:23:33.710Z,22.2
2017-05-14T10:24:36.184Z,22.5
2017-05-14T10:25:39.269Z,22.4
2017-05-14T10:26:43.087Z,22.3
2017-05-14T10:27:45.503Z,22.4
2017-05-14T10:28:47.994Z,22.8
2017-05-14T10:29:51.089Z,23
2017-05-14T10:30:53.543Z,22.9
2017-05-14T10:31:56.004Z,23
2017-05-14T10:32:59.033Z,23.2
2017-05-14T10:34:01.587Z,22.5
2017-05-14T10:35:04.579Z,23
2017-05-14T10:36:07.016Z,23
2017-05-14T10:37:10.638Z,23.2
2017-05-14T10:38:13.178Z,22.3
2017-05-14T10:39:15.633Z,22.5
2017-05-14T10:40:18.087Z,21.9
2017-05-14T10:41:21.024Z,21.5
2017-05-14T10:42:23.435Z,21.7
2017-05-14T10:43:25.915Z,21.4
2017-05-14T10:44:28.391Z,21.9
2017-05-14T10:45:32.352Z,22.8
2017-05-14T10:46:37.324Z,22.9
2017-05-14T10:47:41.185Z,22.8
2017-05-14T10:48:47.209Z,22.7
2017-05-14T10:49:54.668Z,22.8
2017-05-14T10:50:58.418Z,22.9
2017-05-14T10:52:03.448Z,22.8
2017-05-14T10:54:22.160Z,23.5
2017-05-14T10:55:25.896Z,23.6
2017-05-14T10:56:29.346Z,23.9
2017-05-14T10:57:34.614Z,22.6
2017-05-14T10:58:39.074Z,23
2017-05-14T10:59:43.251Z,22.8
2017-05-14T11:00:45.974Z,23.3
2017-05-14T11:01:49.239Z,23.2
2017-05-14T11:02:52.952Z,23.5
2017-05-14T11:03:56.084Z,23.5
2017-05-14T11:04:58.823Z,23.7
2017-05-14T11:06:01.397Z,23.5
2017-05-14T11:07:05.875Z,23.5
2017-05-14T11:08:08.935Z,23.5
2017-05-14T11:09:12.057Z,23.3
2017-05-14T11:10:15.417Z,23.3
2017-05-14T11:11:17.886Z,23.3
2017-05-14T11:12:20.529Z,23.5
2017-05-14T11:13:22.968Z,23.5
2017-05-14T11:14:25.354Z,24.2
2017-05-14T11:15:27.802Z,24.4
2017-05-14T11:16:30.207Z,23.5
2017-05-14T11:17:32.628Z,23.2
2017-05-14T11:18:35.066Z,23.5
2017-05-14T11:19:37.480Z,23.3
2017-05-14T11:20:40.541Z,23.6
2017-05-14T11:21:42.978Z,23.6
2017-05-14T11:22:45.400Z,23.7
2017-05-14T11:23:47.806Z,23.5
2017-05-14T11:24:51.678Z,23.5
2017-05-14T11:25:54.127Z,23
2017-05-14T11:26:56.558Z,23
2017-05-14T11:27:59.740Z,23.3
2017-05-14T11:29:02.242Z,22.9
2017-05-14T11:30:04.750Z,22.4
2017-05-14T11:31:07.899Z,22.5
2017-05-14T11:32:10.433Z,21.8
2017-05-14T11:33:13.440Z,22
2017-05-14T11:34:15.865Z,23
2017-05-14T11:35:19.310Z,22.7
2017-05-14T11:36:21.813Z,22.8
2017-05-14T11:37:24.252Z,22.3
2017-05-14T11:38:26.648Z,22.4
2017-05-14T11:39:30.770Z,22.1
2017-05-14T11:40:33.812Z,22.4
2017-05-14T11:41:36.252Z,23.3
2017-05-14T11:42:38.834Z,23.5
2017-05-14T11:43:41.920Z,23.7
2017-05-14T11:44:44.643Z,23.3
2017-05-14T11:45:47.016Z,23.7
2017-05-14T11:46:49.963Z,23.7
2017-05-14T11:47:52.518Z,24.1
2017-05-14T11:48:54.940Z,24.2
2017-05-14T11:49:57.509Z,23.9
2017-05-14T11:51:01.568Z,23.9
2017-05-14T11:52:04.042Z,22.7
2017-05-14T11:53:06.470Z,23
2017-05-14T11:54:10.930Z,23.3
2017-05-14T11:55:13.385Z,23.5
2017-05-14T11:56:15.811Z,23.8
2017-05-14T11:57:19.532Z,22.6
2017-05-14T11:58:22.787Z,22.4
2017-05-14T11:59:25.160Z,22.8
2017-05-14T12:00:27.546Z,22.7
2017-05-14T12:01:31.076Z,22.4
2017-05-14T12:02:33.512Z,21.9
2017-05-14T12:03:36.885Z,22.2
2017-05-14T12:04:39.288Z,22.1
2017-05-14T12:05:42.493Z,22.3
2017-05-14T12:06:45.931Z,22.5
2017-05-14T12:07:50.341Z,22.7
2017-05-14T12:08:53.837Z,22.7
2017-05-14T12:09:58.130Z,22.7
2017-05-14T12:11:00.721Z,22.5
2017-05-14T12:12:03.133Z,22.3
2017-05-14T12:13:05.536Z,22.1
2017-05-14T12:14:08.529Z,22.5
2017-05-14T12:15:11.045Z,22.7
2017-05-14T12:16:13.464Z,22.5
2017-05-14T12:17:20.060Z,22.2
2017-05-14T12:18:23.204Z,22.5
2017-05-14T12:19:25.760Z,22.5
2017-05-14T12:20:28.191Z,22.9
2017-05-14T12:21:31.953Z,23
2017-05-14T12:22:34.964Z,23.2
2017-05-14T12:23:38.817Z,23
2017-05-14T12:24:42.320Z,22.8
2017-05-14T12:25:44.862Z,22.6
2017-05-14T12:26:48.992Z,22.6
2017-05-14T12:27:52.200Z,22.6
2017-05-14T12:28:54.900Z,22.4
2017-05-14T12:29:57.794Z,22.3
2017-05-14T12:31:00.424Z,22
2017-05-14T12:32:04.536Z,22
2017-05-14T12:33:07.560Z,22.1
2017-05-14T12:34:11.234Z,22
2017-05-14T12:35:13.684Z,22.2
2017-05-14T12:36:16.107Z,22.4
2017-05-14T12:37:18.571Z,22.7
2017-05-14T12:38:21.118Z,22.8
2017-05-14T12:39:23.503Z,23.1
2017-05-14T12:40:25.913Z,23.3
2017-05-14T12:41:28.376Z,23
2017-05-14T12:42:30.881Z,22.7
2017-05-14T12:43:35.156Z,22.5
2017-05-14T12:44:37.598Z,22.5
2017-05-14T12:45:40.411Z,22.6
2017-05-14T12:46:44.183Z,22.2
2017-05-14T12:47:46.653Z,22.1
2017-05-14T12:48:49.112Z,22.1
2017-05-14T12:49:51.644Z,22.2
2017-05-14T12:50:54.062Z,22.2
2017-05-14T12:51:56.478Z,22.1
2017-05-14T12:53:00.059Z,22
2017-05-14T12:54:03.831Z,21.8
2017-05-14T12:55:08.181Z,21.8
2017-05-14T12:56:12.002Z,22.1
2017-05-14T12:57:14.488Z,22.5
2017-05-14T12:58:16.961Z,22
2017-05-14T12:59:20.446Z,22.2
2017-05-14T13:00:24.148Z,22.2
2017-05-14T13:01:26.681Z,21.9
2017-05-14T13:02:30.094Z,21.9
2017-05-14T13:03:32.665Z,21.8
2017-05-14T13:04:35.090Z,22
2017-05-14T13:05:38.314Z,22.3
2017-05-14T13:06:41.401Z,22.3
2017-05-14T13:07:43.947Z,22.3
2017-05-14T13:08:46.500Z,22.4
2017-05-14T13:09:49.087Z,22.3
2017-05-14T13:10:51.577Z,22.4
2017-05-14T13:11:54.005Z,22.3
2017-05-14T13:12:56.542Z,22.3
2017-05-14T13:13:59.776Z,22.2
2017-05-14T13:15:02.834Z,22.4
2017-05-14T13:16:06.056Z,22.4
2017-05-14T13:17:09.105Z,22.5
2017-05-14T13:18:12.288Z,22.7
2017-05-14T13:19:14.799Z,22.5
2017-05-14T13:20:18.898Z,22.4
2017-05-14T13:21:21.354Z,22.6
2017-05-14T13:22:23.833Z,22.9
2017-05-14T13:23:26.312Z,23
2017-05-14T13:24:29.722Z,23
2017-05-14T13:25:32.186Z,22.9
2017-05-14T13:26:36.433Z,22.7
2017-05-14T13:27:38.926Z,22.5
2017-05-14T13:28:42.340Z,22.3
2017-05-14T13:29:47.262Z,22.3
2017-05-14T13:30:50.211Z,22.2
2017-05-14T13:31:52.659Z,22.3
2017-05-14T13:32:56.830Z,22.2
2017-05-14T13:33:59.625Z,22.1
2017-05-14T13:35:03.142Z,22.1
2017-05-14T13:36:05.628Z,22.2
2017-05-14T13:37:08.428Z,21.7
2017-05-14T13:38:11.076Z,22
2017-05-14T13:39:13.585Z,22.3
2017-05-14T13:40:16.136Z,22.4
2017-05-14T13:41:18.681Z,22.5
2017-05-14T13:42:22.866Z,22.5
2017-05-14T13:43:25.407Z,22.1
2017-05-14T13:44:28.053Z,22.1
2017-05-14T13:45:30.613Z,22.2
2017-05-14T13:46:33.922Z,22.4
2017-05-14T13:47:36.467Z,22.4
2017-05-14T13:48:39.653Z,22.5
2017-05-14T13:49:42.295Z,22.4
2017-05-14T13:50:44.779Z,22.5
2017-05-14T13:51:47.255Z,22.7
2017-05-14T13:54:02.260Z,22.8
2017-05-14T13:56:16.315Z,22.7
2017-05-14T13:57:18.900Z,22.9
2017-05-14T13:58:23.538Z,23
2017-05-14T13:59:26.068Z,22.9
2017-05-14T14:00:29.489Z,23
2017-05-14T14:01:34.017Z,23.1